Kafr el-Dauwar, Egypt
Current Conditions -  °F | °C
As of 5:00 PM on Tuesday 21 Oct 2014 (Local Time) from HEAX Reporting Station
Few Clouds Few Clouds  
Wind Chill: 75°   Ceiling: Unl
Heat Index: 75°   Visibility: 6mi
Dew Point: 57°   Wind: 7mph
Humidity: 53%   Direction: 320°NW
Pressure: 29.97"   Gusts: NA
Location:  31.13°N, 30.12°E
Report Text: HEAX 211500Z 32006KT 9999 FEW020 24/14 Q1015 NOSIG
Loading
Personal Weather Stations






























Interactive Weather Map New forecast layout! Learn more

10-Day Weather Forecast

Advertisements
Track Severe Weather on mobile